Terminal Aerodrome Forecast
Issued by NWS

Home | Current Version | Previous Version | Graphics & Text | Print | Product List | Glossary On
Versions: 1 2 3 4 5 6 7 8 9 10 11 12 13 14 15
000
FTUS43 KFGF 181138
TAFBJI
TAF
KBJI 181138Z 1812/1912 30006KT P6SM SCT100
     FM181700 31011KT P6SM BKN060
     FM182100 30013KT P6SM SCT035
     FM190700 27006KT P6SM FEW250=

USA.gov is the U.S. government's official web portal to all federal, state and local government web resources and services.